Terminal Aerodrome Forecast
Issued by NWS

Home | Current Version | Previous Version | Graphics & Text | Print | Product List | Glossary On
Versions: 1 2 3 4 5 6 7 8 9 10 11 12 13 14 15 16
000
FTUS45 KGGW 210815 AAA
TAFOLF
TAF AMD
KOLF 210815Z 2108/2206 VRB03KT P6SM VCSH SCT080 BKN120
     FM211100 26012KT P6SM FEW120
     FM211400 28020G30KT P6SM SKC
     FM220100 29011KT P6SM FEW150
     FM220500 35006KT P6SM SCT100=

USA.gov is the U.S. government's official web portal to all federal, state and local government web resources and services.